createdAt,value
2023-08-07T00:02:02.280Z,100.00
2023-08-07T00:04:29.444Z,100.00
2023-08-07T00:06:56.353Z,100.00
2023-08-07T00:09:23.070Z,100.00
2023-08-07T00:11:49.986Z,100.00
2023-08-07T00:14:16.760Z,100.00
2023-08-07T00:16:43.854Z,100.00
2023-08-07T00:19:10.513Z,100.00
2023-08-07T00:21:37.582Z,100.00
2023-08-07T00:24:04.749Z,100.00
2023-08-07T00:26:33.368Z,100.00
2023-08-07T00:29:00.215Z,100.00
2023-08-07T00:31:27.187Z,100.00
2023-08-07T00:33:55.588Z,100.00
2023-08-07T00:36:23.517Z,100.00
2023-08-07T00:38:51.746Z,100.00
2023-08-07T00:41:19.535Z,100.00
2023-08-07T00:43:46.376Z,100.00
2023-08-07T00:46:13.195Z,100.00
2023-08-07T00:48:40.470Z,100.00
2023-08-07T00:51:09.676Z,100.00
2023-08-07T00:53:39.643Z,100.00
2023-08-07T00:56:07.181Z,100.00
2023-08-07T00:58:35.033Z,100.00
2023-08-07T01:01:02.355Z,100.00
2023-08-07T01:03:29.236Z,100.00
2023-08-07T01:05:56.185Z,100.00
2023-08-07T01:08:24.886Z,100.00
2023-08-07T01:11:09.502Z,100.00
2023-08-07T01:13:46.236Z,100.00
2023-08-07T01:16:22.943Z,100.00
2023-08-07T01:18:50.638Z,100.00
2023-08-07T01:21:21.174Z,100.00
2023-08-07T01:23:48.582Z,100.00
2023-08-07T01:26:20.811Z,100.00
2023-08-07T01:28:57.180Z,100.00
2023-08-07T01:31:26.928Z,100.00
2023-08-07T01:34:04.227Z,100.00
2023-08-07T01:36:31.495Z,100.00
2023-08-07T01:39:00.782Z,100.00
2023-08-07T01:41:28.398Z,100.00
2023-08-07T01:43:55.784Z,100.00
2023-08-07T01:46:22.548Z,100.00
2023-08-07T01:48:49.406Z,100.00
2023-08-07T01:51:16.302Z,100.00
2023-08-07T01:53:43.053Z,100.00
2023-08-07T01:56:09.746Z,100.00
2023-08-07T01:58:36.534Z,100.00
2023-08-07T02:01:03.321Z,100.00
2023-08-07T02:03:30.189Z,100.00
2023-08-07T02:05:57.023Z,100.00
2023-08-07T02:08:25.474Z,100.00
2023-08-07T02:10:52.170Z,100.00
2023-08-07T02:13:19.010Z,100.00
2023-08-07T02:15:45.732Z,100.00
2023-08-07T02:18:12.450Z,100.00
2023-08-07T02:20:39.217Z,100.00
2023-08-07T02:23:05.970Z,100.00
2023-08-07T02:25:32.670Z,100.00
2023-08-07T02:27:59.393Z,100.00
2023-08-07T02:30:26.961Z,100.00
2023-08-07T02:32:53.679Z,100.00
2023-08-07T02:35:21.371Z,100.00
2023-08-07T02:37:48.115Z,100.00
2023-08-07T02:40:16.637Z,100.00
2023-08-07T02:42:43.837Z,100.00
2023-08-07T02:45:10.977Z,100.00
2023-08-07T02:47:37.772Z,100.00
2023-08-07T02:50:04.836Z,100.00
2023-08-07T02:52:31.794Z,100.00
2023-08-07T02:54:59.574Z,100.00
2023-08-07T02:57:26.876Z,100.00
2023-08-07T02:59:53.594Z,100.00
2023-08-07T03:02:20.396Z,100.00
2023-08-07T03:04:47.283Z,100.00
2023-08-07T03:07:14.175Z,100.00
2023-08-07T03:09:40.930Z,100.00
2023-08-07T03:12:07.982Z,100.00
2023-08-07T03:14:35.826Z,100.00
2023-08-07T03:17:02.638Z,100.00
2023-08-07T03:19:29.321Z,100.00
2023-08-07T03:21:56.024Z,100.00
2023-08-07T03:24:22.857Z,100.00
2023-08-07T03:26:50.365Z,100.00
2023-08-07T03:29:17.274Z,100.00
2023-08-07T03:31:44.887Z,100.00
2023-08-07T03:34:12.502Z,100.00
2023-08-07T03:36:39.345Z,100.00
2023-08-07T03:39:06.074Z,100.00
2023-08-07T03:41:32.975Z,100.00
2023-08-07T03:44:01.011Z,100.00
2023-08-07T03:46:27.849Z,100.00
2023-08-07T03:48:54.586Z,100.00
2023-08-07T03:51:21.620Z,100.00
2023-08-07T03:53:51.743Z,100.00
2023-08-07T03:56:18.519Z,100.00
2023-08-07T03:58:45.588Z,100.00
2023-08-07T04:01:13.459Z,100.00
2023-08-07T04:03:41.276Z,100.00
2023-08-07T04:06:08.206Z,100.00
2023-08-07T04:08:35.110Z,100.00
2023-08-07T04:11:06.264Z,100.00
2023-08-07T04:13:34.766Z,100.00
2023-08-07T04:16:05.358Z,100.00
2023-08-07T04:18:33.577Z,100.00
2023-08-07T04:21:02.296Z,100.00
2023-08-07T04:23:29.018Z,100.00
2023-08-07T04:25:56.081Z,100.00
2023-08-07T04:28:23.307Z,100.00
2023-08-07T04:30:54.466Z,100.00
2023-08-07T04:33:21.536Z,100.00
2023-08-07T04:35:48.691Z,100.00
2023-08-07T04:38:16.288Z,100.00
2023-08-07T04:40:50.222Z,100.00
2023-08-07T04:43:18.772Z,100.00
2023-08-07T04:45:48.304Z,100.00
2023-08-07T04:48:16.178Z,100.00
2023-08-07T04:50:43.064Z,100.00
2023-08-07T04:53:09.867Z,100.00
2023-08-07T04:55:36.669Z,100.00
2023-08-07T04:58:03.552Z,100.00
2023-08-07T05:00:30.534Z,100.00
2023-08-07T05:02:57.414Z,100.00
2023-08-07T05:05:24.911Z,100.00
2023-08-07T05:07:51.768Z,100.00
2023-08-07T05:10:18.505Z,100.00
2023-08-07T05:12:45.211Z,100.00
2023-08-07T05:15:11.919Z,100.00
2023-08-07T05:17:38.747Z,100.00
2023-08-07T05:20:06.967Z,100.00
2023-08-07T05:22:33.717Z,100.00
2023-08-07T05:25:00.460Z,100.00
2023-08-07T05:27:27.146Z,100.00
2023-08-07T05:29:53.872Z,100.00
2023-08-07T05:32:20.533Z,100.00
2023-08-07T05:34:47.211Z,100.00
2023-08-07T05:37:13.900Z,100.00
2023-08-07T05:39:40.612Z,100.00
2023-08-07T05:42:09.094Z,100.00
2023-08-07T05:44:36.059Z,100.00
2023-08-07T05:47:03.055Z,100.00
2023-08-07T05:49:29.746Z,100.00
2023-08-07T05:51:56.748Z,100.00
2023-08-07T05:54:23.739Z,100.00
2023-08-07T05:56:50.464Z,100.00
2023-08-07T05:59:17.204Z,100.00
2023-08-07T06:01:44.029Z,100.00
2023-08-07T06:04:10.943Z,100.00
2023-08-07T06:06:40.399Z,100.00
2023-08-07T06:09:07.707Z,100.00
2023-08-07T06:11:34.553Z,100.00
2023-08-07T06:14:01.761Z,100.00
2023-08-07T06:16:28.821Z,100.00
2023-08-07T06:18:55.657Z,100.00
2023-08-07T06:21:22.537Z,100.00
2023-08-07T06:23:49.413Z,100.00
2023-08-07T06:26:16.173Z,100.00
2023-08-07T06:28:43.955Z,100.00
2023-08-07T06:31:12.264Z,100.00
2023-08-07T06:33:39.585Z,100.00
2023-08-07T06:36:07.923Z,100.00
2023-08-07T06:38:34.667Z,100.00
2023-08-07T06:41:01.550Z,100.00
2023-08-07T06:43:28.335Z,100.00
2023-08-07T06:45:56.790Z,100.00
2023-08-07T06:48:23.789Z,100.00
2023-08-07T06:50:52.235Z,100.00
2023-08-07T06:53:20.033Z,100.00
2023-08-07T06:55:47.153Z,100.00
2023-08-07T06:58:13.932Z,100.00
2023-08-07T07:00:40.817Z,100.00
2023-08-07T07:03:08.908Z,100.00
2023-08-07T07:05:35.798Z,100.00
2023-08-07T07:08:02.581Z,100.00
2023-08-07T07:10:29.546Z,100.00
2023-08-07T07:12:56.538Z,100.00
2023-08-07T07:15:23.376Z,100.00
2023-08-07T07:17:50.295Z,100.00
2023-08-07T07:20:17.106Z,100.00
2023-08-07T07:22:43.917Z,100.00
2023-08-07T07:25:11.323Z,100.00
2023-08-07T07:27:38.058Z,100.00
2023-08-07T07:30:05.528Z,100.00
2023-08-07T07:32:32.295Z,100.00
2023-08-07T07:34:59.206Z,100.00
2023-08-07T07:37:26.094Z,100.00
2023-08-07T07:39:52.860Z,100.00
2023-08-07T07:42:20.352Z,100.00
2023-08-07T07:44:47.212Z,100.00
2023-08-07T07:47:14.320Z,100.00
2023-08-07T07:49:47.758Z,100.00
2023-08-07T07:52:15.026Z,100.00
2023-08-07T07:54:41.754Z,100.00
2023-08-07T07:57:08.491Z,100.00
2023-08-07T07:59:35.219Z,100.00
2023-08-07T08:02:02.425Z,100.00
2023-08-07T08:04:29.289Z,100.00
2023-08-07T08:06:56.370Z,99.91
2023-08-07T08:09:23.078Z,99.83
2023-08-07T08:11:49.761Z,98.31
2023-08-07T08:14:17.503Z,99.72
2023-08-07T08:16:44.355Z,99.89
2023-08-07T08:19:11.482Z,98.25
2023-08-07T08:21:38.279Z,97.88
2023-08-07T08:24:05.730Z,96.82
2023-08-07T08:26:32.526Z,95.15
2023-08-07T08:28:59.369Z,93.43
2023-08-07T08:31:26.228Z,93.79
2023-08-07T08:33:53.148Z,95.37
2023-08-07T08:36:20.049Z,96.57
2023-08-07T08:38:49.305Z,96.29
2023-08-07T08:41:17.676Z,97.38
2023-08-07T08:43:47.901Z,98.94
2023-08-07T08:46:17.701Z,99.35
2023-08-07T08:48:50.652Z,99.38
2023-08-07T08:51:19.443Z,99.32
2023-08-07T08:53:50.432Z,99.37
2023-08-07T08:56:18.114Z,99.43
2023-08-07T08:58:45.338Z,97.47
2023-08-07T09:01:13.667Z,95.15
2023-08-07T09:03:41.072Z,94.43
2023-08-07T09:06:08.426Z,94.59
2023-08-07T09:08:36.366Z,92.36
2023-08-07T09:11:03.649Z,93.48
2023-08-07T09:13:33.069Z,94.64
2023-08-07T09:16:01.501Z,96.55
2023-08-07T09:18:28.750Z,95.88
2023-08-07T09:20:55.894Z,93.84
2023-08-07T09:23:22.842Z,93.68
2023-08-07T09:26:00.797Z,95.79
2023-08-07T09:28:27.646Z,96.49
2023-08-07T09:30:54.398Z,96.38
2023-08-07T09:33:28.400Z,94.91
2023-08-07T09:35:59.823Z,95.15
2023-08-07T09:38:29.867Z,95.50
2023-08-07T09:41:05.859Z,93.52
2023-08-07T09:43:36.674Z,92.89
2023-08-07T09:46:08.095Z,92.01
2023-08-07T09:48:44.830Z,89.72
2023-08-07T09:51:12.085Z,88.82
2023-08-07T09:53:38.966Z,89.96
2023-08-07T09:56:07.112Z,91.04
2023-08-07T09:58:34.047Z,90.25
2023-08-07T10:01:03.952Z,89.62
2023-08-07T10:03:31.480Z,88.25
2023-08-07T10:05:59.964Z,87.96
2023-08-07T10:08:26.960Z,87.19
2023-08-07T10:10:54.221Z,86.74
2023-08-07T10:13:28.238Z,86.19
2023-08-07T10:16:05.381Z,84.43
2023-08-07T10:18:32.162Z,80.34
2023-08-07T10:20:59.204Z,78.92
2023-08-07T10:23:25.894Z,78.64
2023-08-07T10:25:53.213Z,76.79
2023-08-07T10:28:21.824Z,78.58
2023-08-07T10:30:49.967Z,77.33
2023-08-07T10:33:20.736Z,78.70
2023-08-07T10:35:51.854Z,78.12
2023-08-07T10:38:23.416Z,78.06
2023-08-07T10:41:02.719Z,77.26
2023-08-07T10:43:30.304Z,78.84
2023-08-07T10:46:14.648Z,77.96
2023-08-07T10:48:47.761Z,75.16
2023-08-07T10:51:16.223Z,74.84
2023-08-07T10:53:48.757Z,74.41
2023-08-07T10:56:30.109Z,72.05
2023-08-07T10:58:57.069Z,70.99
2023-08-07T11:01:36.257Z,70.91
2023-08-07T11:04:14.857Z,70.54
2023-08-07T11:06:43.594Z,71.46
2023-08-07T11:09:11.338Z,72.02
2023-08-07T11:11:41.464Z,75.25
2023-08-07T11:14:16.362Z,76.32
2023-08-07T11:16:44.581Z,76.29
2023-08-07T11:19:15.428Z,75.50
2023-08-07T11:21:43.520Z,74.28
2023-08-07T11:24:14.547Z,74.77
2023-08-07T11:26:43.284Z,75.31
2023-08-07T11:29:10.609Z,75.19
2023-08-07T11:31:37.604Z,74.31
2023-08-07T11:34:04.398Z,76.08
2023-08-07T11:36:32.845Z,76.67
2023-08-07T11:38:59.677Z,75.91
2023-08-07T11:41:26.377Z,76.09
2023-08-07T11:43:53.156Z,74.62
2023-08-07T11:46:19.910Z,74.83
2023-08-07T11:48:46.680Z,76.89
2023-08-07T11:51:14.314Z,78.36
2023-08-07T11:53:42.597Z,79.42
2023-08-07T11:56:11.801Z,78.13
2023-08-07T11:58:41.090Z,78.29
2023-08-07T12:01:11.262Z,78.00
2023-08-07T12:03:40.009Z,77.79
2023-08-07T12:06:09.250Z,77.97
2023-08-07T12:08:38.233Z,78.11
2023-08-07T12:11:07.164Z,79.74
2023-08-07T12:13:36.425Z,80.31
2023-08-07T12:16:06.599Z,79.43
2023-08-07T12:18:34.026Z,77.78
2023-08-07T12:21:02.277Z,77.70
2023-08-07T12:23:29.345Z,77.83
2023-08-07T12:25:56.670Z,79.60
2023-08-07T12:28:23.759Z,78.96
2023-08-07T12:30:52.308Z,79.47
2023-08-07T12:33:19.810Z,78.64
2023-08-07T12:35:47.140Z,79.32
2023-08-07T12:38:16.783Z,79.60
2023-08-07T12:40:44.629Z,78.92
2023-08-07T12:43:11.656Z,79.77
2023-08-07T12:48:08.837Z,79.77
2023-08-07T12:50:35.897Z,80.21
2023-08-07T12:53:03.180Z,80.73
2023-08-07T12:55:30.883Z,81.21
2023-08-07T12:57:58.422Z,82.03
2023-08-07T13:00:26.577Z,83.03
2023-08-07T13:02:54.836Z,83.90
2023-08-07T13:05:23.312Z,85.15
2023-08-07T13:07:50.126Z,86.10
2023-08-07T13:10:18.394Z,85.18
2023-08-07T13:12:48.173Z,86.05
2023-08-07T13:15:16.846Z,86.23
2023-08-07T13:17:45.497Z,85.51
2023-08-07T13:20:14.934Z,86.22
2023-08-07T13:22:43.869Z,86.78
2023-08-07T13:25:11.930Z,86.57
2023-08-07T13:27:39.854Z,87.98
2023-08-07T13:30:08.221Z,88.96
2023-08-07T13:32:35.414Z,90.13
2023-08-07T13:35:02.309Z,90.36
2023-08-07T13:37:29.096Z,91.82
2023-08-07T13:39:56.746Z,91.30
2023-08-07T13:42:28.549Z,91.12
2023-08-07T13:44:59.370Z,91.70
2023-08-07T13:47:27.097Z,91.04
2023-08-07T13:49:55.637Z,90.70
2023-08-07T13:52:22.688Z,89.27
2023-08-07T13:54:49.410Z,87.86
2023-08-07T13:57:16.541Z,86.22
2023-08-07T13:59:43.626Z,85.65
2023-08-07T14:02:10.597Z,85.66
2023-08-07T14:04:37.348Z,85.75
2023-08-07T14:07:05.115Z,84.54
2023-08-07T14:09:31.919Z,87.89
2023-08-07T14:11:59.234Z,89.26
2023-08-07T14:14:26.301Z,91.31
2023-08-07T14:16:55.541Z,92.83
2023-08-07T14:19:22.382Z,93.07
2023-08-07T14:21:49.106Z,95.28
2023-08-07T14:24:17.503Z,95.58
2023-08-07T14:26:44.617Z,94.46
2023-08-07T14:29:11.783Z,94.40
2023-08-07T14:31:38.478Z,94.25
2023-08-07T14:34:05.228Z,91.96
2023-08-07T14:36:31.993Z,92.34
2023-08-07T14:38:58.795Z,91.87
2023-08-07T14:41:25.523Z,91.43
2023-08-07T14:43:52.333Z,91.40
2023-08-07T14:46:21.898Z,93.24
2023-08-07T14:48:48.772Z,93.97
2023-08-07T14:51:15.633Z,95.04
2023-08-07T14:53:42.345Z,95.36
2023-08-07T14:56:09.825Z,96.81
2023-08-07T14:58:36.645Z,96.95
2023-08-07T15:01:03.399Z,97.31
2023-08-07T15:03:30.355Z,97.45
2023-08-07T15:05:58.848Z,96.27
2023-08-07T15:08:25.677Z,96.68
2023-08-07T15:10:54.376Z,94.10
2023-08-07T15:13:21.448Z,91.07
2023-08-07T15:15:48.362Z,89.82
2023-08-07T15:18:15.170Z,89.63
2023-08-07T15:20:41.998Z,89.39
2023-08-07T15:23:08.980Z,88.05
2023-08-07T15:25:35.698Z,88.98
2023-08-07T15:28:04.166Z,89.82
2023-08-07T15:30:31.793Z,89.00
2023-08-07T15:32:58.641Z,89.75
2023-08-07T15:35:27.149Z,89.46
2023-08-07T15:37:54.166Z,89.35
2023-08-07T15:40:21.107Z,90.47
2023-08-07T15:42:49.050Z,90.44
2023-08-07T15:45:15.902Z,90.46
2023-08-07T15:47:42.654Z,90.86
2023-08-07T15:50:10.657Z,91.32
2023-08-07T15:52:37.387Z,90.37
2023-08-07T15:55:04.460Z,90.45
2023-08-07T15:57:31.743Z,90.63
2023-08-07T15:59:58.693Z,90.82
2023-08-07T16:02:25.478Z,91.12
2023-08-07T16:04:52.385Z,90.49
2023-08-07T16:07:19.242Z,90.04
2023-08-07T16:09:46.012Z,89.38
2023-08-07T16:12:12.777Z,87.53
2023-08-07T16:14:39.627Z,87.06
2023-08-07T16:17:06.618Z,87.92
2023-08-07T16:19:33.545Z,89.39
2023-08-07T16:22:00.425Z,89.73
2023-08-07T16:24:27.209Z,89.64
2023-08-07T16:26:54.023Z,89.81
2023-08-07T16:29:20.732Z,89.13
2023-08-07T16:31:47.778Z,87.39
2023-08-07T16:34:14.526Z,88.06
2023-08-07T16:36:41.614Z,89.72
2023-08-07T16:39:08.343Z,89.43
2023-08-07T16:41:36.304Z,90.31
2023-08-07T16:44:03.033Z,89.77
2023-08-07T16:46:30.960Z,89.56
2023-08-07T16:48:59.293Z,89.62
2023-08-07T16:51:27.261Z,89.47
2023-08-07T16:53:54.153Z,89.35
2023-08-07T16:56:20.934Z,89.38
2023-08-07T16:58:49.754Z,90.46
2023-08-07T17:01:17.057Z,90.31
2023-08-07T17:03:44.719Z,91.06
2023-08-07T17:06:11.504Z,92.00
2023-08-07T17:08:38.753Z,93.01
2023-08-07T17:11:05.480Z,91.06
2023-08-07T17:13:32.245Z,91.70
2023-08-07T17:15:59.083Z,91.21
2023-08-07T17:18:25.895Z,90.58
2023-08-07T17:20:52.780Z,90.36
2023-08-07T17:23:19.508Z,88.56
2023-08-07T17:25:46.257Z,89.43
2023-08-07T17:28:12.983Z,87.30
2023-08-07T17:30:39.801Z,87.92
2023-08-07T17:33:06.730Z,87.83
2023-08-07T17:35:35.480Z,88.29
2023-08-07T17:38:02.682Z,88.83
2023-08-07T17:40:29.415Z,88.59
2023-08-07T17:42:56.162Z,89.45
2023-08-07T17:45:23.081Z,89.57
2023-08-07T17:47:49.819Z,89.72
2023-08-07T17:50:17.489Z,90.16
2023-08-07T17:52:44.254Z,90.28
2023-08-07T17:55:12.921Z,90.68
2023-08-07T17:57:39.898Z,90.02
2023-08-07T18:00:08.824Z,90.22
2023-08-07T18:02:35.786Z,89.84
2023-08-07T18:05:03.973Z,90.47
2023-08-07T18:07:31.665Z,90.95
2023-08-07T18:09:58.728Z,92.31
2023-08-07T18:12:25.448Z,92.38
2023-08-07T18:14:52.822Z,93.39
2023-08-07T18:17:19.601Z,93.75
2023-08-07T18:19:46.366Z,93.50
2023-08-07T18:22:13.138Z,93.40
2023-08-07T18:24:39.988Z,93.59
2023-08-07T18:27:06.833Z,94.21
2023-08-07T18:29:33.526Z,94.51
2023-08-07T18:32:00.413Z,94.41
2023-08-07T18:34:27.192Z,94.51
2023-08-07T18:36:54.075Z,94.67
2023-08-07T18:39:20.787Z,94.99
2023-08-07T18:41:47.556Z,95.36
2023-08-07T18:44:14.386Z,95.25
2023-08-07T18:46:42.639Z,95.69
2023-08-07T18:49:09.862Z,95.92
2023-08-07T18:51:37.086Z,96.65
2023-08-07T18:54:05.665Z,97.29
2023-08-07T18:56:33.104Z,97.64
2023-08-07T18:58:59.965Z,98.28
2023-08-07T19:01:26.742Z,98.64
2023-08-07T19:03:53.588Z,99.24
2023-08-07T19:06:20.768Z,100.00
2023-08-07T19:08:47.581Z,100.00
2023-08-07T19:11:14.391Z,100.00
2023-08-07T19:13:41.094Z,100.00
2023-08-07T19:16:07.899Z,100.00
2023-08-07T19:18:34.766Z,100.00
2023-08-07T19:21:01.975Z,100.00
2023-08-07T19:23:32.958Z,100.00
2023-08-07T19:26:01.639Z,100.00
2023-08-07T19:28:28.940Z,100.00
2023-08-07T19:31:05.941Z,100.00
2023-08-07T19:33:34.706Z,100.00
2023-08-07T19:36:01.736Z,100.00
2023-08-07T19:38:28.592Z,100.00
2023-08-07T19:40:55.379Z,100.00
2023-08-07T19:43:22.909Z,100.00
2023-08-07T19:45:49.772Z,100.00
2023-08-07T19:48:16.637Z,100.00
2023-08-07T19:50:43.519Z,100.00
2023-08-07T19:53:10.237Z,100.00
2023-08-07T19:55:37.002Z,100.00
2023-08-07T19:58:05.212Z,100.00
2023-08-07T20:00:32.120Z,100.00
2023-08-07T20:03:00.194Z,100.00
2023-08-07T20:05:27.490Z,100.00
2023-08-07T20:07:54.550Z,100.00
2023-08-07T20:10:24.695Z,100.00
2023-08-07T20:12:52.357Z,100.00
2023-08-07T20:15:20.978Z,100.00
2023-08-07T20:17:50.269Z,100.00
2023-08-07T20:20:21.237Z,100.00
2023-08-07T20:22:48.162Z,100.00
2023-08-07T20:25:15.289Z,100.00
2023-08-07T20:27:42.179Z,100.00
2023-08-07T20:30:09.219Z,100.00
2023-08-07T20:32:35.959Z,100.00
2023-08-07T20:35:03.157Z,100.00
2023-08-07T20:37:30.241Z,100.00
2023-08-07T20:39:56.973Z,100.00
2023-08-07T20:42:23.876Z,100.00
2023-08-07T20:44:50.674Z,100.00
2023-08-07T20:47:17.459Z,100.00
2023-08-07T20:49:44.200Z,100.00
2023-08-07T20:52:10.974Z,100.00
2023-08-07T20:54:37.712Z,100.00
2023-08-07T20:57:05.630Z,100.00
2023-08-07T20:59:32.380Z,100.00
2023-08-07T21:01:59.541Z,100.00
2023-08-07T21:04:27.126Z,100.00
2023-08-07T21:06:54.235Z,100.00
2023-08-07T21:09:21.223Z,100.00
2023-08-07T21:11:48.098Z,100.00
2023-08-07T21:14:14.841Z,100.00
2023-08-07T21:16:44.850Z,100.00
2023-08-07T21:19:13.012Z,100.00
2023-08-07T21:21:39.858Z,100.00
2023-08-07T21:24:13.230Z,100.00
2023-08-07T21:26:40.915Z,100.00
2023-08-07T21:29:07.995Z,100.00
2023-08-07T21:31:35.708Z,100.00
2023-08-07T21:34:03.593Z,100.00
2023-08-07T21:36:30.691Z,100.00
2023-08-07T21:38:58.893Z,100.00
2023-08-07T21:41:27.105Z,100.00
2023-08-07T21:43:54.730Z,100.00
2023-08-07T21:46:24.399Z,100.00
2023-08-07T21:48:51.852Z,100.00
2023-08-07T21:51:18.730Z,100.00
2023-08-07T21:53:45.611Z,100.00
2023-08-07T21:56:12.349Z,100.00
2023-08-07T21:58:39.123Z,100.00
2023-08-07T22:01:05.855Z,100.00
2023-08-07T22:03:32.792Z,100.00
2023-08-07T22:05:59.679Z,100.00
2023-08-07T22:08:26.586Z,100.00
2023-08-07T22:10:53.353Z,100.00
2023-08-07T22:13:20.115Z,100.00
2023-08-07T22:15:46.988Z,100.00
2023-08-07T22:18:14.279Z,100.00
2023-08-07T22:20:41.275Z,100.00
2023-08-07T22:23:08.010Z,100.00
2023-08-07T22:25:35.653Z,100.00
2023-08-07T22:28:02.826Z,100.00
2023-08-07T22:30:29.555Z,100.00
2023-08-07T22:32:56.540Z,100.00
2023-08-07T22:35:25.126Z,100.00
2023-08-07T22:37:51.831Z,100.00
2023-08-07T22:40:18.686Z,100.00
2023-08-07T22:42:45.366Z,100.00
2023-08-07T22:45:12.143Z,100.00
2023-08-07T22:47:38.968Z,100.00
2023-08-07T22:50:07.310Z,100.00
2023-08-07T22:52:34.568Z,100.00
2023-08-07T22:55:01.380Z,100.00
2023-08-07T22:57:28.120Z,100.00
2023-08-07T22:59:55.319Z,100.00
2023-08-07T23:02:22.069Z,100.00
2023-08-07T23:04:48.808Z,100.00
2023-08-07T23:07:15.584Z,100.00
2023-08-07T23:09:42.292Z,100.00
2023-08-07T23:12:10.125Z,100.00
2023-08-07T23:14:36.881Z,100.00
2023-08-07T23:17:05.392Z,100.00
2023-08-07T23:19:32.990Z,100.00
2023-08-07T23:21:59.954Z,100.00
2023-08-07T23:24:27.012Z,100.00
2023-08-07T23:26:53.797Z,100.00
2023-08-07T23:29:20.488Z,100.00
2023-08-07T23:31:47.258Z,100.00
2023-08-07T23:34:14.126Z,100.00
2023-08-07T23:36:40.906Z,100.00
2023-08-07T23:39:08.255Z,100.00
2023-08-07T23:41:35.008Z,100.00
2023-08-07T23:44:01.888Z,100.00
2023-08-07T23:46:29.291Z,100.00
2023-08-07T23:48:56.792Z,100.00
2023-08-07T23:51:25.031Z,100.00
2023-08-07T23:53:51.903Z,100.00
2023-08-07T23:56:18.667Z,100.00
2023-08-07T23:58:45.394Z,100.00
